sensor_id;sensor_type;location;lat;lon;timestamp;P1;durP1;ratioP1;P2;durP2;ratioP2
34505;SDS011;20748;42.632;23.198;2023-11-21T00:00:10;17.45;;;8.85;;
34505;SDS011;20748;42.632;23.198;2023-11-21T00:02:45;20.80;;;10.02;;
34505;SDS011;20748;42.632;23.198;2023-11-21T00:05:19;21.88;;;9.57;;
34505;SDS011;20748;42.632;23.198;2023-11-21T00:07:55;25.02;;;12.43;;
34505;SDS011;20748;42.632;23.198;2023-11-21T00:10:29;21.00;;;9.95;;
34505;SDS011;20748;42.632;23.198;2023-11-21T00:13:04;23.42;;;9.98;;
34505;SDS011;20748;42.632;23.198;2023-11-21T00:15:38;19.63;;;9.98;;
34505;SDS011;20748;42.632;23.198;2023-11-21T00:18:12;18.38;;;8.40;;
34505;SDS011;20748;42.632;23.198;2023-11-21T00:20:46;15.88;;;8.30;;
34505;SDS011;20748;42.632;23.198;2023-11-21T00:23:20;15.30;;;8.10;;
34505;SDS011;20748;42.632;23.198;2023-11-21T00:25:53;10.68;;;6.28;;
34505;SDS011;20748;42.632;23.198;2023-11-21T00:28:29;14.63;;;6.55;;
34505;SDS011;20748;42.632;23.198;2023-11-21T00:31:03;13.82;;;6.38;;
34505;SDS011;20748;42.632;23.198;2023-11-21T00:33:37;12.05;;;6.57;;
34505;SDS011;20748;42.632;23.198;2023-11-21T00:36:11;9.63;;;5.60;;
34505;SDS011;20748;42.632;23.198;2023-11-21T00:38:45;14.77;;;5.80;;
34505;SDS011;20748;42.632;23.198;2023-11-21T00:41:20;11.23;;;6.00;;
34505;SDS011;20748;42.632;23.198;2023-11-21T00:43:55;15.55;;;6.45;;
34505;SDS011;20748;42.632;23.198;2023-11-21T00:46:29;16.15;;;7.57;;
34505;SDS011;20748;42.632;23.198;2023-11-21T00:49:03;18.77;;;8.25;;
34505;SDS011;20748;42.632;23.198;2023-11-21T00:51:37;13.25;;;7.00;;
34505;SDS011;20748;42.632;23.198;2023-11-21T00:54:11;14.75;;;6.82;;
34505;SDS011;20748;42.632;23.198;2023-11-21T00:56:45;10.05;;;5.97;;
34505;SDS011;20748;42.632;23.198;2023-11-21T00:59:21;8.88;;;3.45;;
34505;SDS011;20748;42.632;23.198;2023-11-21T01:01:56;5.97;;;3.75;;
34505;SDS011;20748;42.632;23.198;2023-11-21T01:04:33;9.43;;;3.65;;
34505;SDS011;20748;42.632;23.198;2023-11-21T01:07:06;8.93;;;4.63;;
34505;SDS011;20748;42.632;23.198;2023-11-21T01:09:40;8.90;;;4.50;;
34505;SDS011;20748;42.632;23.198;2023-11-21T01:12:16;8.82;;;4.85;;
34505;SDS011;20748;42.632;23.198;2023-11-21T01:14:52;11.63;;;5.35;;
34505;SDS011;20748;42.632;23.198;2023-11-21T01:17:26;7.45;;;5.28;;
34505;SDS011;20748;42.632;23.198;2023-11-21T01:20:01;9.77;;;5.57;;
34505;SDS011;20748;42.632;23.198;2023-11-21T01:22:38;8.00;;;4.38;;
34505;SDS011;20748;42.632;23.198;2023-11-21T01:25:13;12.05;;;6.10;;
34505;SDS011;20748;42.632;23.198;2023-11-21T01:27:47;9.93;;;5.35;;
34505;SDS011;20748;42.632;23.198;2023-11-21T01:30:22;10.48;;;4.78;;
34505;SDS011;20748;42.632;23.198;2023-11-21T01:32:57;8.68;;;4.65;;
34505;SDS011;20748;42.632;23.198;2023-11-21T01:35:31;11.20;;;5.20;;
34505;SDS011;20748;42.632;23.198;2023-11-21T01:38:06;12.13;;;5.70;;
34505;SDS011;20748;42.632;23.198;2023-11-21T01:40:40;17.33;;;6.35;;
34505;SDS011;20748;42.632;23.198;2023-11-21T01:43:14;13.43;;;6.90;;
34505;SDS011;20748;42.632;23.198;2023-11-21T01:45:50;14.43;;;6.68;;
34505;SDS011;20748;42.632;23.198;2023-11-21T01:48:24;12.48;;;5.82;;
34505;SDS011;20748;42.632;23.198;2023-11-21T01:50:58;11.45;;;6.35;;
34505;SDS011;20748;42.632;23.198;2023-11-21T01:53:32;8.93;;;5.05;;
34505;SDS011;20748;42.632;23.198;2023-11-21T01:56:06;7.65;;;4.38;;
34505;SDS011;20748;42.632;23.198;2023-11-21T01:58:42;8.93;;;4.75;;
34505;SDS011;20748;42.632;23.198;2023-11-21T02:01:18;9.00;;;4.30;;
34505;SDS011;20748;42.632;23.198;2023-11-21T02:03:51;5.13;;;3.22;;
34505;SDS011;20748;42.632;23.198;2023-11-21T02:06:25;6.97;;;3.70;;
34505;SDS011;20748;42.632;23.198;2023-11-21T02:08:59;9.65;;;4.57;;
34505;SDS011;20748;42.632;23.198;2023-11-21T02:11:33;8.75;;;3.88;;
34505;SDS011;20748;42.632;23.198;2023-11-21T02:14:07;7.95;;;3.95;;
34505;SDS011;20748;42.632;23.198;2023-11-21T02:16:43;8.32;;;4.65;;
34505;SDS011;20748;42.632;23.198;2023-11-21T02:19:21;10.00;;;4.55;;
34505;SDS011;20748;42.632;23.198;2023-11-21T02:21:57;6.90;;;3.72;;
34505;SDS011;20748;42.632;23.198;2023-11-21T02:24:37;9.73;;;4.38;;
34505;SDS011;20748;42.632;23.198;2023-11-21T02:27:10;10.70;;;5.40;;
34505;SDS011;20748;42.632;23.198;2023-11-21T02:29:44;6.38;;;3.83;;
34505;SDS011;20748;42.632;23.198;2023-11-21T02:32:18;4.28;;;2.50;;
34505;SDS011;20748;42.632;23.198;2023-11-21T02:34:55;6.20;;;3.60;;
34505;SDS011;20748;42.632;23.198;2023-11-21T02:37:33;5.43;;;3.20;;
34505;SDS011;20748;42.632;23.198;2023-11-21T02:40:10;8.55;;;4.07;;
34505;SDS011;20748;42.632;23.198;2023-11-21T02:42:45;10.48;;;4.38;;
34505;SDS011;20748;42.632;23.198;2023-11-21T02:45:20;7.35;;;4.15;;
34505;SDS011;20748;42.632;23.198;2023-11-21T02:47:55;7.93;;;4.18;;
34505;SDS011;20748;42.632;23.198;2023-11-21T02:50:31;15.65;;;4.68;;
34505;SDS011;20748;42.632;23.198;2023-11-21T02:53:05;10.50;;;6.30;;
34505;SDS011;20748;42.632;23.198;2023-11-21T02:55:40;10.25;;;6.35;;
34505;SDS011;20748;42.632;23.198;2023-11-21T02:58:14;6.97;;;5.18;;
34505;SDS011;20748;42.632;23.198;2023-11-21T03:00:48;11.98;;;5.40;;
34505;SDS011;20748;42.632;23.198;2023-11-21T03:03:22;8.38;;;5.43;;
34505;SDS011;20748;42.632;23.198;2023-11-21T03:05:57;11.10;;;4.95;;
34505;SDS011;20748;42.632;23.198;2023-11-21T03:08:30;12.55;;;7.45;;
34505;SDS011;20748;42.632;23.198;2023-11-21T03:11:05;10.85;;;5.50;;
34505;SDS011;20748;42.632;23.198;2023-11-21T03:13:40;7.10;;;4.75;;
34505;SDS011;20748;42.632;23.198;2023-11-21T03:16:15;7.32;;;4.10;;
34505;SDS011;20748;42.632;23.198;2023-11-21T03:18:49;7.10;;;4.40;;
34505;SDS011;20748;42.632;23.198;2023-11-21T03:21:25;6.50;;;3.40;;
34505;SDS011;20748;42.632;23.198;2023-11-21T03:23:59;4.50;;;2.80;;
34505;SDS011;20748;42.632;23.198;2023-11-21T03:26:34;6.97;;;2.72;;
34505;SDS011;20748;42.632;23.198;2023-11-21T03:29:10;5.65;;;3.50;;
34505;SDS011;20748;42.632;23.198;2023-11-21T03:31:44;4.63;;;3.05;;
34505;SDS011;20748;42.632;23.198;2023-11-21T03:34:22;6.40;;;3.22;;
34505;SDS011;20748;42.632;23.198;2023-11-21T03:36:59;10.27;;;3.88;;
34505;SDS011;20748;42.632;23.198;2023-11-21T03:39:33;8.32;;;4.32;;
34505;SDS011;20748;42.632;23.198;2023-11-21T03:42:09;7.85;;;4.80;;
34505;SDS011;20748;42.632;23.198;2023-11-21T03:44:42;7.05;;;4.78;;
34505;SDS011;20748;42.632;23.198;2023-11-21T03:47:16;9.90;;;4.00;;
34505;SDS011;20748;42.632;23.198;2023-11-21T03:49:51;8.52;;;3.88;;
34505;SDS011;20748;42.632;23.198;2023-11-21T03:52:25;5.80;;;2.63;;
34505;SDS011;20748;42.632;23.198;2023-11-21T03:55:00;6.60;;;2.60;;
34505;SDS011;20748;42.632;23.198;2023-11-21T03:57:36;5.80;;;2.80;;
34505;SDS011;20748;42.632;23.198;2023-11-21T04:00:10;4.68;;;3.00;;
34505;SDS011;20748;42.632;23.198;2023-11-21T04:02:45;5.68;;;3.83;;
34505;SDS011;20748;42.632;23.198;2023-11-21T04:05:20;5.40;;;3.47;;
34505;SDS011;20748;42.632;23.198;2023-11-21T04:07:54;6.95;;;3.13;;
34505;SDS011;20748;42.632;23.198;2023-11-21T04:10:28;6.25;;;3.35;;
34505;SDS011;20748;42.632;23.198;2023-11-21T04:13:03;5.00;;;3.25;;
34505;SDS011;20748;42.632;23.198;2023-11-21T04:15:37;7.03;;;2.85;;
34505;SDS011;20748;42.632;23.198;2023-11-21T04:18:11;12.68;;;5.13;;
34505;SDS011;20748;42.632;23.198;2023-11-21T04:20:45;9.55;;;5.18;;
34505;SDS011;20748;42.632;23.198;2023-11-21T04:23:18;17.63;;;7.70;;
34505;SDS011;20748;42.632;23.198;2023-11-21T04:25:52;13.00;;;7.63;;
34505;SDS011;20748;42.632;23.198;2023-11-21T04:28:29;18.25;;;9.27;;
34505;SDS011;20748;42.632;23.198;2023-11-21T04:31:03;16.67;;;8.70;;
34505;SDS011;20748;42.632;23.198;2023-11-21T04:33:39;15.10;;;7.65;;
34505;SDS011;20748;42.632;23.198;2023-11-21T04:36:13;13.18;;;6.85;;
34505;SDS011;20748;42.632;23.198;2023-11-21T04:38:46;13.20;;;5.75;;
34505;SDS011;20748;42.632;23.198;2023-11-21T04:41:20;11.77;;;5.88;;
34505;SDS011;20748;42.632;23.198;2023-11-21T04:43:55;12.02;;;6.75;;
34505;SDS011;20748;42.632;23.198;2023-11-21T04:46:30;10.63;;;5.78;;
34505;SDS011;20748;42.632;23.198;2023-11-21T04:49:04;13.32;;;7.22;;
34505;SDS011;20748;42.632;23.198;2023-11-21T04:51:38;9.55;;;4.72;;
34505;SDS011;20748;42.632;23.198;2023-11-21T04:54:12;9.23;;;4.03;;
34505;SDS011;20748;42.632;23.198;2023-11-21T04:56:46;6.68;;;4.50;;
34505;SDS011;20748;42.632;23.198;2023-11-21T04:59:21;8.02;;;4.63;;
34505;SDS011;20748;42.632;23.198;2023-11-21T05:01:56;8.63;;;5.38;;
34505;SDS011;20748;42.632;23.198;2023-11-21T05:04:33;15.52;;;5.50;;
34505;SDS011;20748;42.632;23.198;2023-11-21T05:07:06;12.07;;;6.57;;
34505;SDS011;20748;42.632;23.198;2023-11-21T05:09:41;16.15;;;8.35;;
34505;SDS011;20748;42.632;23.198;2023-11-21T05:12:18;16.20;;;9.50;;
34505;SDS011;20748;42.632;23.198;2023-11-21T05:14:53;18.52;;;11.15;;
34505;SDS011;20748;42.632;23.198;2023-11-21T05:17:27;24.42;;;13.23;;
34505;SDS011;20748;42.632;23.198;2023-11-21T05:20:01;25.77;;;12.95;;
34505;SDS011;20748;42.632;23.198;2023-11-21T05:22:36;25.15;;;11.82;;
34505;SDS011;20748;42.632;23.198;2023-11-21T05:25:10;19.67;;;11.10;;
34505;SDS011;20748;42.632;23.198;2023-11-21T05:27:45;22.80;;;10.82;;
34505;SDS011;20748;42.632;23.198;2023-11-21T05:30:20;25.30;;;12.68;;
34505;SDS011;20748;42.632;23.198;2023-11-21T05:32:55;31.42;;;12.75;;
34505;SDS011;20748;42.632;23.198;2023-11-21T05:35:29;27.55;;;13.23;;
34505;SDS011;20748;42.632;23.198;2023-11-21T05:38:03;21.98;;;12.98;;
34505;SDS011;20748;42.632;23.198;2023-11-21T05:40:37;28.42;;;13.40;;
34505;SDS011;20748;42.632;23.198;2023-11-21T05:43:11;29.55;;;12.00;;
34505;SDS011;20748;42.632;23.198;2023-11-21T05:45:46;23.30;;;12.15;;
34505;SDS011;20748;42.632;23.198;2023-11-21T05:48:20;23.17;;;13.43;;
34505;SDS011;20748;42.632;23.198;2023-11-21T05:50:54;25.95;;;15.40;;
34505;SDS011;20748;42.632;23.198;2023-11-21T05:53:27;41.05;;;23.38;;
34505;SDS011;20748;42.632;23.198;2023-11-21T05:56:01;37.40;;;19.58;;
34505;SDS011;20748;42.632;23.198;2023-11-21T05:58:36;35.10;;;17.25;;
34505;SDS011;20748;42.632;23.198;2023-11-21T06:01:11;33.60;;;15.50;;
34505;SDS011;20748;42.632;23.198;2023-11-21T06:03:45;32.25;;;16.98;;
34505;SDS011;20748;42.632;23.198;2023-11-21T06:06:19;31.95;;;15.93;;
34505;SDS011;20748;42.632;23.198;2023-11-21T06:08:54;27.90;;;15.38;;
34505;SDS011;20748;42.632;23.198;2023-11-21T06:11:28;37.15;;;17.48;;
34505;SDS011;20748;42.632;23.198;2023-11-21T06:14:02;38.70;;;17.17;;
34505;SDS011;20748;42.632;23.198;2023-11-21T06:16:41;32.63;;;18.63;;
34505;SDS011;20748;42.632;23.198;2023-11-21T06:19:17;29.30;;;16.02;;
34505;SDS011;20748;42.632;23.198;2023-11-21T06:21:51;32.40;;;18.15;;
34505;SDS011;20748;42.632;23.198;2023-11-21T06:24:25;32.00;;;17.73;;
34505;SDS011;20748;42.632;23.198;2023-11-21T06:26:58;39.05;;;20.52;;
34505;SDS011;20748;42.632;23.198;2023-11-21T06:29:33;33.58;;;19.92;;
34505;SDS011;20748;42.632;23.198;2023-11-21T06:32:08;36.53;;;18.58;;
34505;SDS011;20748;42.632;23.198;2023-11-21T06:34:42;43.13;;;20.20;;
34505;SDS011;20748;42.632;23.198;2023-11-21T06:37:16;34.40;;;17.92;;
34505;SDS011;20748;42.632;23.198;2023-11-21T06:39:50;35.75;;;16.55;;
34505;SDS011;20748;42.632;23.198;2023-11-21T06:42:24;29.02;;;11.98;;
34505;SDS011;20748;42.632;23.198;2023-11-21T06:45:05;26.85;;;10.93;;
34505;SDS011;20748;42.632;23.198;2023-11-21T06:47:40;19.95;;;10.10;;
34505;SDS011;20748;42.632;23.198;2023-11-21T06:50:15;16.42;;;8.70;;
34505;SDS011;20748;42.632;23.198;2023-11-21T06:52:49;15.93;;;7.22;;
34505;SDS011;20748;42.632;23.198;2023-11-21T06:55:23;12.73;;;6.85;;
34505;SDS011;20748;42.632;23.198;2023-11-21T06:57:58;12.13;;;5.72;;
34505;SDS011;20748;42.632;23.198;2023-11-21T07:00:32;20.17;;;10.55;;
34505;SDS011;20748;42.632;23.198;2023-11-21T07:03:08;16.05;;;8.77;;
34505;SDS011;20748;42.632;23.198;2023-11-21T07:05:42;18.25;;;10.65;;
34505;SDS011;20748;42.632;23.198;2023-11-21T07:08:15;19.75;;;10.27;;
34505;SDS011;20748;42.632;23.198;2023-11-21T07:10:49;30.38;;;14.65;;
34505;SDS011;20748;42.632;23.198;2023-11-21T07:13:23;27.33;;;16.40;;
34505;SDS011;20748;42.632;23.198;2023-11-21T07:15:58;47.35;;;22.38;;
34505;SDS011;20748;42.632;23.198;2023-11-21T07:18:34;63.25;;;30.23;;
34505;SDS011;20748;42.632;23.198;2023-11-21T07:21:07;59.40;;;28.23;;
34505;SDS011;20748;42.632;23.198;2023-11-21T07:23:44;52.78;;;27.75;;
34505;SDS011;20748;42.632;23.198;2023-11-21T07:26:17;59.50;;;28.05;;
34505;SDS011;20748;42.632;23.198;2023-11-21T07:28:51;48.90;;;23.27;;
34505;SDS011;20748;42.632;23.198;2023-11-21T07:31:25;35.88;;;18.20;;
34505;SDS011;20748;42.632;23.198;2023-11-21T07:34:00;40.80;;;18.60;;
34505;SDS011;20748;42.632;23.198;2023-11-21T07:36:34;21.88;;;9.45;;
34505;SDS011;20748;42.632;23.198;2023-11-21T07:39:08;21.10;;;8.88;;
34505;SDS011;20748;42.632;23.198;2023-11-21T07:41:41;19.90;;;8.27;;
34505;SDS011;20748;42.632;23.198;2023-11-21T07:44:21;16.25;;;7.80;;
34505;SDS011;20748;42.632;23.198;2023-11-21T07:46:54;22.65;;;8.93;;
34505;SDS011;20748;42.632;23.198;2023-11-21T07:49:31;24.25;;;10.55;;
34505;SDS011;20748;42.632;23.198;2023-11-21T07:52:04;33.38;;;15.13;;
34505;SDS011;20748;42.632;23.198;2023-11-21T07:54:38;33.97;;;15.85;;
34505;SDS011;20748;42.632;23.198;2023-11-21T07:57:12;21.30;;;11.63;;
34505;SDS011;20748;42.632;23.198;2023-11-21T07:59:46;22.85;;;12.65;;
34505;SDS011;20748;42.632;23.198;2023-11-21T08:02:20;24.10;;;12.55;;
34505;SDS011;20748;42.632;23.198;2023-11-21T08:04:55;22.55;;;12.40;;
34505;SDS011;20748;42.632;23.198;2023-11-21T08:07:29;22.77;;;10.52;;
34505;SDS011;20748;42.632;23.198;2023-11-21T08:10:04;25.58;;;10.70;;
34505;SDS011;20748;42.632;23.198;2023-11-21T08:12:39;40.92;;;16.33;;
34505;SDS011;20748;42.632;23.198;2023-11-21T08:15:15;32.40;;;15.57;;
34505;SDS011;20748;42.632;23.198;2023-11-21T08:17:48;17.05;;;7.28;;
34505;SDS011;20748;42.632;23.198;2023-11-21T08:20:23;22.13;;;6.95;;
34505;SDS011;20748;42.632;23.198;2023-11-21T08:22:57;20.27;;;5.03;;
34505;SDS011;20748;42.632;23.198;2023-11-21T08:25:31;17.35;;;5.18;;
34505;SDS011;20748;42.632;23.198;2023-11-21T08:28:07;15.65;;;5.38;;
34505;SDS011;20748;42.632;23.198;2023-11-21T08:30:41;15.50;;;4.50;;
34505;SDS011;20748;42.632;23.198;2023-11-21T08:33:15;16.50;;;5.68;;
34505;SDS011;20748;42.632;23.198;2023-11-21T08:35:50;14.15;;;5.57;;
34505;SDS011;20748;42.632;23.198;2023-11-21T08:38:24;15.70;;;6.75;;
34505;SDS011;20748;42.632;23.198;2023-11-21T08:40:57;17.10;;;6.18;;
34505;SDS011;20748;42.632;23.198;2023-11-21T08:43:33;15.77;;;7.40;;
34505;SDS011;20748;42.632;23.198;2023-11-21T08:46:07;23.65;;;8.13;;
34505;SDS011;20748;42.632;23.198;2023-11-21T08:48:41;19.30;;;6.00;;
34505;SDS011;20748;42.632;23.198;2023-11-21T08:51:17;20.48;;;6.65;;
34505;SDS011;20748;42.632;23.198;2023-11-21T08:53:51;36.75;;;17.92;;
34505;SDS011;20748;42.632;23.198;2023-11-21T08:56:25;26.08;;;8.65;;
34505;SDS011;20748;42.632;23.198;2023-11-21T08:58:58;15.70;;;6.60;;
34505;SDS011;20748;42.632;23.198;2023-11-21T09:01:34;20.17;;;6.63;;
34505;SDS011;20748;42.632;23.198;2023-11-21T09:04:08;20.40;;;7.00;;
34505;SDS011;20748;42.632;23.198;2023-11-21T09:06:43;34.25;;;16.55;;
34505;SDS011;20748;42.632;23.198;2023-11-21T09:09:17;18.83;;;8.50;;
34505;SDS011;20748;42.632;23.198;2023-11-21T09:11:52;17.58;;;7.03;;
34505;SDS011;20748;42.632;23.198;2023-11-21T09:14:25;21.35;;;9.90;;
34505;SDS011;20748;42.632;23.198;2023-11-21T09:16:59;17.60;;;9.07;;
34505;SDS011;20748;42.632;23.198;2023-11-21T09:19:33;15.63;;;9.43;;
34505;SDS011;20748;42.632;23.198;2023-11-21T09:22:08;22.15;;;11.68;;
34505;SDS011;20748;42.632;23.198;2023-11-21T09:24:42;15.68;;;9.00;;
34505;SDS011;20748;42.632;23.198;2023-11-21T09:27:16;13.23;;;8.15;;
34505;SDS011;20748;42.632;23.198;2023-11-21T09:29:50;14.25;;;7.47;;
34505;SDS011;20748;42.632;23.198;2023-11-21T09:32:25;11.70;;;6.07;;
34505;SDS011;20748;42.632;23.198;2023-11-21T09:34:58;13.13;;;7.75;;
34505;SDS011;20748;42.632;23.198;2023-11-21T09:37:36;19.13;;;9.05;;
34505;SDS011;20748;42.632;23.198;2023-11-21T09:40:10;13.02;;;6.55;;
34505;SDS011;20748;42.632;23.198;2023-11-21T09:42:50;18.10;;;7.55;;
34505;SDS011;20748;42.632;23.198;2023-11-21T09:45:29;16.80;;;8.32;;
34505;SDS011;20748;42.632;23.198;2023-11-21T09:48:07;11.97;;;7.53;;
34505;SDS011;20748;42.632;23.198;2023-11-21T09:50:44;12.73;;;7.20;;
34505;SDS011;20748;42.632;23.198;2023-11-21T09:53:25;16.88;;;7.50;;
34505;SDS011;20748;42.632;23.198;2023-11-21T09:56:02;12.38;;;7.05;;
34505;SDS011;20748;42.632;23.198;2023-11-21T09:58:36;12.55;;;7.40;;
34505;SDS011;20748;42.632;23.198;2023-11-21T10:01:11;10.85;;;6.32;;
34505;SDS011;20748;42.632;23.198;2023-11-21T10:03:48;9.70;;;4.85;;
34505;SDS011;20748;42.632;23.198;2023-11-21T10:06:23;5.18;;;1.65;;
34505;SDS011;20748;42.632;23.198;2023-11-21T10:09:00;4.22;;;1.75;;
34505;SDS011;20748;42.632;23.198;2023-11-21T10:11:36;2.47;;;1.17;;
34505;SDS011;20748;42.632;23.198;2023-11-21T10:14:10;3.20;;;0.75;;
34505;SDS011;20748;42.632;23.198;2023-11-21T10:16:46;2.10;;;1.10;;
34505;SDS011;20748;42.632;23.198;2023-11-21T10:19:22;1.98;;;0.60;;
34505;SDS011;20748;42.632;23.198;2023-11-21T10:21:57;2.33;;;0.93;;
34505;SDS011;20748;42.632;23.198;2023-11-21T10:24:34;3.10;;;1.10;;
34505;SDS011;20748;42.632;23.198;2023-11-21T10:27:20;1.80;;;0.80;;
34505;SDS011;20748;42.632;23.198;2023-11-21T10:29:54;3.28;;;1.35;;
34505;SDS011;20748;42.632;23.198;2023-11-21T10:32:28;2.67;;;1.40;;
34505;SDS011;20748;42.632;23.198;2023-11-21T10:35:05;4.28;;;2.30;;
34505;SDS011;20748;42.632;23.198;2023-11-21T10:37:42;6.60;;;2.55;;
34505;SDS011;20748;42.632;23.198;2023-11-21T10:40:18;6.45;;;3.03;;
34505;SDS011;20748;42.632;23.198;2023-11-21T10:42:53;3.20;;;1.35;;
34505;SDS011;20748;42.632;23.198;2023-11-21T10:45:30;3.83;;;1.20;;
34505;SDS011;20748;42.632;23.198;2023-11-21T10:48:05;2.08;;;0.93;;
34505;SDS011;20748;42.632;23.198;2023-11-21T10:50:42;6.53;;;2.28;;
34505;SDS011;20748;42.632;23.198;2023-11-21T10:53:16;4.28;;;1.20;;
34505;SDS011;20748;42.632;23.198;2023-11-21T10:55:58;3.85;;;1.33;;
34505;SDS011;20748;42.632;23.198;2023-11-21T10:58:35;5.32;;;2.92;;
34505;SDS011;20748;42.632;23.198;2023-11-21T11:01:12;4.65;;;2.03;;
34505;SDS011;20748;42.632;23.198;2023-11-21T11:03:49;3.05;;;1.17;;
34505;SDS011;20748;42.632;23.198;2023-11-21T11:06:26;2.75;;;1.38;;
34505;SDS011;20748;42.632;23.198;2023-11-21T11:09:01;1.88;;;0.90;;
34505;SDS011;20748;42.632;23.198;2023-11-21T11:11:38;1.98;;;0.85;;
34505;SDS011;20748;42.632;23.198;2023-11-21T11:14:13;1.92;;;0.90;;
34505;SDS011;20748;42.632;23.198;2023-11-21T11:16:48;3.47;;;0.93;;
34505;SDS011;20748;42.632;23.198;2023-11-21T11:19:22;3.88;;;1.63;;
34505;SDS011;20748;42.632;23.198;2023-11-21T11:22:00;1.45;;;0.77;;
34505;SDS011;20748;42.632;23.198;2023-11-21T11:24:48;4.82;;;1.30;;
34505;SDS011;20748;42.632;23.198;2023-11-21T11:27:40;1.70;;;0.82;;
34505;SDS011;20748;42.632;23.198;2023-11-21T11:30:26;1.48;;;0.70;;
34505;SDS011;20748;42.632;23.198;2023-11-21T11:33:14;1.75;;;1.02;;
34505;SDS011;20748;42.632;23.198;2023-11-21T11:36:00;1.65;;;0.80;;
34505;SDS011;20748;42.632;23.198;2023-11-21T11:38:44;1.02;;;0.57;;
34505;SDS011;20748;42.632;23.198;2023-11-21T11:41:24;1.80;;;1.10;;
34505;SDS011;20748;42.632;23.198;2023-11-21T11:44:01;4.68;;;1.98;;
34505;SDS011;20748;42.632;23.198;2023-11-21T11:46:41;1.85;;;0.65;;
34505;SDS011;20748;42.632;23.198;2023-11-21T11:49:24;0.85;;;0.60;;
34505;SDS011;20748;42.632;23.198;2023-11-21T11:55:07;1.05;;;0.52;;
34505;SDS011;20748;42.632;23.198;2023-11-21T11:57:43;1.40;;;0.88;;
34505;SDS011;20748;42.632;23.198;2023-11-21T12:00:21;1.73;;;1.00;;
34505;SDS011;20748;42.632;23.198;2023-11-21T12:03:10;6.72;;;2.92;;
34505;SDS011;20748;42.632;23.198;2023-11-21T12:05:44;17.15;;;4.50;;
34505;SDS011;20748;42.632;23.198;2023-11-21T12:08:21;10.43;;;2.95;;
34505;SDS011;20748;42.632;23.198;2023-11-21T12:11:03;7.60;;;2.40;;
34505;SDS011;20748;42.632;23.198;2023-11-21T12:13:38;11.02;;;4.68;;
34505;SDS011;20748;42.632;23.198;2023-11-21T12:16:14;5.57;;;2.15;;
34505;SDS011;20748;42.632;23.198;2023-11-21T12:18:48;5.28;;;2.75;;
34505;SDS011;20748;42.632;23.198;2023-11-21T12:21:22;5.57;;;2.97;;
34505;SDS011;20748;42.632;23.198;2023-11-21T12:23:56;7.85;;;4.38;;
34505;SDS011;20748;42.632;23.198;2023-11-21T12:26:30;8.43;;;3.95;;
34505;SDS011;20748;42.632;23.198;2023-11-21T12:29:04;13.57;;;5.88;;
34505;SDS011;20748;42.632;23.198;2023-11-21T12:31:41;7.90;;;3.50;;
34505;SDS011;20748;42.632;23.198;2023-11-21T12:34:15;10.93;;;4.10;;
34505;SDS011;20748;42.632;23.198;2023-11-21T12:36:50;31.17;;;9.23;;
34505;SDS011;20748;42.632;23.198;2023-11-21T12:39:27;19.67;;;5.80;;
34505;SDS011;20748;42.632;23.198;2023-11-21T12:42:01;18.73;;;9.50;;
34505;SDS011;20748;42.632;23.198;2023-11-21T12:44:35;25.23;;;13.45;;
34505;SDS011;20748;42.632;23.198;2023-11-21T12:47:17;20.83;;;14.20;;
34505;SDS011;20748;42.632;23.198;2023-11-21T12:49:52;28.67;;;16.13;;
34505;SDS011;20748;42.632;23.198;2023-11-21T12:52:26;34.03;;;17.30;;
34505;SDS011;20748;42.632;23.198;2023-11-21T12:55:00;30.83;;;16.98;;
34505;SDS011;20748;42.632;23.198;2023-11-21T12:57:34;23.63;;;15.55;;
34505;SDS011;20748;42.632;23.198;2023-11-21T13:00:11;28.35;;;15.57;;
34505;SDS011;20748;42.632;23.198;2023-11-21T13:02:58;25.05;;;15.98;;
34505;SDS011;20748;42.632;23.198;2023-11-21T13:05:33;26.65;;;15.85;;
34505;SDS011;20748;42.632;23.198;2023-11-21T13:08:11;26.90;;;15.88;;
34505;SDS011;20748;42.632;23.198;2023-11-21T13:10:46;26.88;;;18.35;;
34505;SDS011;20748;42.632;23.198;2023-11-21T13:13:23;36.75;;;19.67;;
34505;SDS011;20748;42.632;23.198;2023-11-21T13:15:58;32.80;;;19.92;;
34505;SDS011;20748;42.632;23.198;2023-11-21T13:18:38;19.75;;;8.95;;
34505;SDS011;20748;42.632;23.198;2023-11-21T13:21:14;26.98;;;16.20;;
34505;SDS011;20748;42.632;23.198;2023-11-21T13:23:49;13.70;;;8.25;;
34505;SDS011;20748;42.632;23.198;2023-11-21T13:26:25;8.85;;;3.65;;
34505;SDS011;20748;42.632;23.198;2023-11-21T13:28:59;5.60;;;2.83;;
34505;SDS011;20748;42.632;23.198;2023-11-21T13:31:33;2.92;;;1.67;;
34505;SDS011;20748;42.632;23.198;2023-11-21T13:34:11;4.97;;;1.63;;
34505;SDS011;20748;42.632;23.198;2023-11-21T13:36:52;2.45;;;1.35;;
34505;SDS011;20748;42.632;23.198;2023-11-21T13:39:31;3.17;;;1.52;;
34505;SDS011;20748;42.632;23.198;2023-11-21T13:42:05;3.58;;;2.00;;
34505;SDS011;20748;42.632;23.198;2023-11-21T13:44:39;3.42;;;1.55;;
34505;SDS011;20748;42.632;23.198;2023-11-21T13:47:16;3.75;;;1.60;;
34505;SDS011;20748;42.632;23.198;2023-11-21T13:49:51;3.53;;;1.80;;
34505;SDS011;20748;42.632;23.198;2023-11-21T13:52:26;3.20;;;1.65;;
34505;SDS011;20748;42.632;23.198;2023-11-21T13:55:02;2.58;;;1.67;;
34505;SDS011;20748;42.632;23.198;2023-11-21T13:57:39;5.55;;;2.70;;
34505;SDS011;20748;42.632;23.198;2023-11-21T14:00:15;5.90;;;2.72;;
34505;SDS011;20748;42.632;23.198;2023-11-21T14:03:03;5.63;;;2.47;;
34505;SDS011;20748;42.632;23.198;2023-11-21T14:05:44;5.47;;;2.53;;
34505;SDS011;20748;42.632;23.198;2023-11-21T14:11:00;5.13;;;3.03;;
34505;SDS011;20748;42.632;23.198;2023-11-21T14:13:34;9.40;;;3.97;;
34505;SDS011;20748;42.632;23.198;2023-11-21T14:16:08;7.15;;;3.05;;
34505;SDS011;20748;42.632;23.198;2023-11-21T14:18:43;6.70;;;3.28;;
34505;SDS011;20748;42.632;23.198;2023-11-21T14:21:29;4.95;;;2.13;;
34505;SDS011;20748;42.632;23.198;2023-11-21T14:24:03;5.13;;;3.10;;
34505;SDS011;20748;42.632;23.198;2023-11-21T14:26:41;2.00;;;1.13;;
34505;SDS011;20748;42.632;23.198;2023-11-21T14:29:18;5.47;;;2.88;;
34505;SDS011;20748;42.632;23.198;2023-11-21T14:31:52;5.00;;;2.22;;
34505;SDS011;20748;42.632;23.198;2023-11-21T14:34:29;3.88;;;2.15;;
34505;SDS011;20748;42.632;23.198;2023-11-21T14:37:04;4.60;;;1.83;;
34505;SDS011;20748;42.632;23.198;2023-11-21T14:39:39;3.85;;;2.10;;
34505;SDS011;20748;42.632;23.198;2023-11-21T14:42:17;3.97;;;2.53;;
34505;SDS011;20748;42.632;23.198;2023-11-21T14:44:57;7.28;;;3.42;;
34505;SDS011;20748;42.632;23.198;2023-11-21T14:47:35;8.77;;;4.70;;
34505;SDS011;20748;42.632;23.198;2023-11-21T14:50:10;9.32;;;4.25;;
34505;SDS011;20748;42.632;23.198;2023-11-21T14:53:09;5.82;;;3.80;;
34505;SDS011;20748;42.632;23.198;2023-11-21T14:55:45;5.13;;;3.20;;
34505;SDS011;20748;42.632;23.198;2023-11-21T14:58:29;10.73;;;4.32;;
34505;SDS011;20748;42.632;23.198;2023-11-21T15:01:03;7.38;;;3.33;;
34505;SDS011;20748;42.632;23.198;2023-11-21T15:03:36;5.22;;;3.70;;
34505;SDS011;20748;42.632;23.198;2023-11-21T15:06:22;4.88;;;2.92;;
34505;SDS011;20748;42.632;23.198;2023-11-21T15:09:00;4.60;;;2.67;;
34505;SDS011;20748;42.632;23.198;2023-11-21T15:11:51;6.45;;;2.97;;
34505;SDS011;20748;42.632;23.198;2023-11-21T15:14:30;5.43;;;3.00;;
34505;SDS011;20748;42.632;23.198;2023-11-21T15:17:06;5.72;;;3.53;;